sensor_id;sensor_type;location;lat;lon;timestamp;P1;durP1;ratioP1;P2;durP2;ratioP2
13255;SDS011;37913;48.370;10.930;2023-03-14T00:01:58;84.00;;;34.65;;
13255;SDS011;37913;48.370;10.930;2023-03-14T00:04:25;78.22;;;33.75;;
13255;SDS011;37913;48.370;10.930;2023-03-14T00:06:52;84.55;;;35.15;;
13255;SDS011;37913;48.370;10.930;2023-03-14T00:09:18;76.80;;;33.00;;
13255;SDS011;37913;48.370;10.930;2023-03-14T00:11:45;80.00;;;33.85;;
13255;SDS011;37913;48.370;10.930;2023-03-14T00:14:14;75.03;;;32.75;;
13255;SDS011;37913;48.370;10.930;2023-03-14T00:16:41;79.60;;;33.83;;
13255;SDS011;37913;48.370;10.930;2023-03-14T00:19:11;77.97;;;33.88;;
13255;SDS011;37913;48.370;10.930;2023-03-14T00:21:38;76.85;;;33.35;;
13255;SDS011;37913;48.370;10.930;2023-03-14T00:24:06;76.80;;;33.05;;
13255;SDS011;37913;48.370;10.930;2023-03-14T00:26:33;82.13;;;34.10;;
13255;SDS011;37913;48.370;10.930;2023-03-14T00:29:00;75.35;;;32.90;;
13255;SDS011;37913;48.370;10.930;2023-03-14T00:31:29;79.55;;;33.17;;
13255;SDS011;37913;48.370;10.930;2023-03-14T00:33:56;69.38;;;31.83;;
13255;SDS011;37913;48.370;10.930;2023-03-14T00:36:23;67.90;;;31.23;;
13255;SDS011;37913;48.370;10.930;2023-03-14T00:38:52;73.90;;;32.42;;
13255;SDS011;37913;48.370;10.930;2023-03-14T00:41:19;79.60;;;33.63;;
13255;SDS011;37913;48.370;10.930;2023-03-14T00:43:48;84.22;;;34.75;;
13255;SDS011;37913;48.370;10.930;2023-03-14T00:46:15;79.28;;;33.63;;
13255;SDS011;37913;48.370;10.930;2023-03-14T00:48:45;75.10;;;32.67;;
13255;SDS011;37913;48.370;10.930;2023-03-14T00:51:12;72.38;;;32.47;;
13255;SDS011;37913;48.370;10.930;2023-03-14T00:53:40;77.80;;;32.97;;
13255;SDS011;37913;48.370;10.930;2023-03-14T00:56:08;78.85;;;33.42;;
13255;SDS011;37913;48.370;10.930;2023-03-14T00:58:37;79.25;;;33.40;;
13255;SDS011;37913;48.370;10.930;2023-03-14T01:01:07;78.50;;;33.35;;
13255;SDS011;37913;48.370;10.930;2023-03-14T01:03:35;80.53;;;33.53;;
13255;SDS011;37913;48.370;10.930;2023-03-14T01:06:08;75.45;;;32.97;;
13255;SDS011;37913;48.370;10.930;2023-03-14T01:08:36;79.75;;;33.75;;
13255;SDS011;37913;48.370;10.930;2023-03-14T01:11:07;83.00;;;34.33;;
13255;SDS011;37913;48.370;10.930;2023-03-14T01:13:35;83.55;;;34.03;;
13255;SDS011;37913;48.370;10.930;2023-03-14T01:16:02;88.50;;;34.75;;
13255;SDS011;37913;48.370;10.930;2023-03-14T01:18:31;75.50;;;32.42;;
13255;SDS011;37913;48.370;10.930;2023-03-14T01:21:00;95.00;;;36.17;;
13255;SDS011;37913;48.370;10.930;2023-03-14T01:23:28;82.68;;;34.25;;
13255;SDS011;37913;48.370;10.930;2023-03-14T01:25:55;80.18;;;33.38;;
13255;SDS011;37913;48.370;10.930;2023-03-14T01:28:22;81.93;;;33.40;;
13255;SDS011;37913;48.370;10.930;2023-03-14T01:30:49;81.55;;;33.90;;
13255;SDS011;37913;48.370;10.930;2023-03-14T01:33:16;87.93;;;34.80;;
13255;SDS011;37913;48.370;10.930;2023-03-14T01:35:43;75.57;;;32.15;;
13255;SDS011;37913;48.370;10.930;2023-03-14T01:38:10;78.22;;;32.63;;
13255;SDS011;37913;48.370;10.930;2023-03-14T01:40:42;82.97;;;33.33;;
13255;SDS011;37913;48.370;10.930;2023-03-14T01:43:14;75.95;;;32.55;;
13255;SDS011;37913;48.370;10.930;2023-03-14T01:45:55;80.32;;;33.17;;
13255;SDS011;37913;48.370;10.930;2023-03-14T01:48:42;77.15;;;32.65;;
13255;SDS011;37913;48.370;10.930;2023-03-14T01:51:14;77.38;;;32.33;;
13255;SDS011;37913;48.370;10.930;2023-03-14T01:53:44;81.82;;;32.92;;
13255;SDS011;37913;48.370;10.930;2023-03-14T01:56:14;80.68;;;33.22;;
13255;SDS011;37913;48.370;10.930;2023-03-14T01:58:43;65.32;;;30.10;;
13255;SDS011;37913;48.370;10.930;2023-03-14T02:01:14;68.13;;;30.33;;
13255;SDS011;37913;48.370;10.930;2023-03-14T02:03:44;73.43;;;31.75;;
13255;SDS011;37913;48.370;10.930;2023-03-14T02:06:14;81.45;;;33.08;;
13255;SDS011;37913;48.370;10.930;2023-03-14T02:08:43;77.20;;;32.58;;
13255;SDS011;37913;48.370;10.930;2023-03-14T02:11:14;78.43;;;32.67;;
13255;SDS011;37913;48.370;10.930;2023-03-14T02:13:43;82.65;;;33.47;;
13255;SDS011;37913;48.370;10.930;2023-03-14T02:16:10;82.75;;;33.13;;
13255;SDS011;37913;48.370;10.930;2023-03-14T02:18:37;74.70;;;32.00;;
13255;SDS011;37913;48.370;10.930;2023-03-14T02:21:06;69.90;;;31.17;;
13255;SDS011;37913;48.370;10.930;2023-03-14T02:23:41;69.28;;;30.70;;
13255;SDS011;37913;48.370;10.930;2023-03-14T02:26:16;68.47;;;30.95;;
13255;SDS011;37913;48.370;10.930;2023-03-14T02:28:50;77.43;;;32.45;;
13255;SDS011;37913;48.370;10.930;2023-03-14T02:31:18;71.85;;;31.52;;
13255;SDS011;37913;48.370;10.930;2023-03-14T02:33:47;76.63;;;32.50;;
13255;SDS011;37913;48.370;10.930;2023-03-14T02:36:14;77.82;;;33.05;;
13255;SDS011;37913;48.370;10.930;2023-03-14T02:38:43;74.05;;;32.20;;
13255;SDS011;37913;48.370;10.930;2023-03-14T02:41:15;72.15;;;31.42;;
13255;SDS011;37913;48.370;10.930;2023-03-14T02:43:42;74.30;;;32.07;;
13255;SDS011;37913;48.370;10.930;2023-03-14T02:46:11;76.27;;;32.30;;
13255;SDS011;37913;48.370;10.930;2023-03-14T02:48:39;76.25;;;32.30;;
13255;SDS011;37913;48.370;10.930;2023-03-14T02:51:09;74.68;;;32.08;;
13255;SDS011;37913;48.370;10.930;2023-03-14T02:53:37;76.68;;;32.45;;
13255;SDS011;37913;48.370;10.930;2023-03-14T02:56:06;78.00;;;32.65;;
13255;SDS011;37913;48.370;10.930;2023-03-14T02:58:34;62.00;;;29.17;;
13255;SDS011;37913;48.370;10.930;2023-03-14T03:01:02;71.43;;;31.33;;
13255;SDS011;37913;48.370;10.930;2023-03-14T03:03:30;78.20;;;32.70;;
13255;SDS011;37913;48.370;10.930;2023-03-14T03:05:57;78.28;;;33.10;;
13255;SDS011;37913;48.370;10.930;2023-03-14T03:08:25;76.25;;;32.17;;
13255;SDS011;37913;48.370;10.930;2023-03-14T03:10:53;79.32;;;33.08;;
13255;SDS011;37913;48.370;10.930;2023-03-14T03:13:21;69.53;;;31.05;;
13255;SDS011;37913;48.370;10.930;2023-03-14T03:15:48;73.93;;;32.00;;
13255;SDS011;37913;48.370;10.930;2023-03-14T03:18:15;75.20;;;32.15;;
13255;SDS011;37913;48.370;10.930;2023-03-14T03:20:43;74.95;;;32.25;;
13255;SDS011;37913;48.370;10.930;2023-03-14T03:23:10;77.35;;;32.40;;
13255;SDS011;37913;48.370;10.930;2023-03-14T03:25:37;82.70;;;33.75;;
13255;SDS011;37913;48.370;10.930;2023-03-14T03:28:04;65.63;;;30.13;;
13255;SDS011;37913;48.370;10.930;2023-03-14T03:30:33;78.45;;;32.70;;
13255;SDS011;37913;48.370;10.930;2023-03-14T03:33:03;76.18;;;32.42;;
13255;SDS011;37913;48.370;10.930;2023-03-14T03:35:30;78.32;;;32.90;;
13255;SDS011;37913;48.370;10.930;2023-03-14T03:37:58;74.00;;;31.77;;
13255;SDS011;37913;48.370;10.930;2023-03-14T03:40:25;79.28;;;32.92;;
13255;SDS011;37913;48.370;10.930;2023-03-14T03:42:52;76.22;;;32.20;;
13255;SDS011;37913;48.370;10.930;2023-03-14T03:45:19;74.30;;;31.73;;
13255;SDS011;37913;48.370;10.930;2023-03-14T03:47:46;87.05;;;34.42;;
13255;SDS011;37913;48.370;10.930;2023-03-14T03:50:13;69.05;;;30.95;;
13255;SDS011;37913;48.370;10.930;2023-03-14T03:52:40;110.97;;;40.03;;
13255;SDS011;37913;48.370;10.930;2023-03-14T03:55:08;76.25;;;32.50;;
13255;SDS011;37913;48.370;10.930;2023-03-14T03:57:35;78.47;;;32.75;;
13255;SDS011;37913;48.370;10.930;2023-03-14T04:00:02;81.05;;;33.17;;
13255;SDS011;37913;48.370;10.930;2023-03-14T04:02:31;84.32;;;33.88;;
13255;SDS011;37913;48.370;10.930;2023-03-14T04:04:58;88.43;;;34.22;;
13255;SDS011;37913;48.370;10.930;2023-03-14T04:07:25;74.43;;;31.70;;
13255;SDS011;37913;48.370;10.930;2023-03-14T04:09:52;83.90;;;33.65;;
13255;SDS011;37913;48.370;10.930;2023-03-14T04:12:20;71.07;;;31.13;;
13255;SDS011;37913;48.370;10.930;2023-03-14T04:14:47;77.53;;;32.00;;
13255;SDS011;37913;48.370;10.930;2023-03-14T04:17:13;73.30;;;31.65;;
13255;SDS011;37913;48.370;10.930;2023-03-14T04:19:42;84.20;;;34.05;;
13255;SDS011;37913;48.370;10.930;2023-03-14T04:22:09;75.97;;;32.13;;
13255;SDS011;37913;48.370;10.930;2023-03-14T04:24:36;81.97;;;33.10;;
13255;SDS011;37913;48.370;10.930;2023-03-14T04:27:03;66.15;;;30.23;;
13255;SDS011;37913;48.370;10.930;2023-03-14T04:29:31;76.97;;;32.47;;
13255;SDS011;37913;48.370;10.930;2023-03-14T04:31:58;65.97;;;29.90;;
13255;SDS011;37913;48.370;10.930;2023-03-14T04:34:25;75.73;;;32.50;;
13255;SDS011;37913;48.370;10.930;2023-03-14T04:36:52;73.80;;;31.88;;
13255;SDS011;37913;48.370;10.930;2023-03-14T04:39:19;71.25;;;31.00;;
13255;SDS011;37913;48.370;10.930;2023-03-14T04:41:46;70.20;;;31.13;;
13255;SDS011;37913;48.370;10.930;2023-03-14T04:44:13;71.82;;;31.38;;
13255;SDS011;37913;48.370;10.930;2023-03-14T04:46:41;73.05;;;31.35;;
13255;SDS011;37913;48.370;10.930;2023-03-14T04:49:08;72.95;;;31.55;;
13255;SDS011;37913;48.370;10.930;2023-03-14T04:51:35;80.35;;;32.90;;
13255;SDS011;37913;48.370;10.930;2023-03-14T04:54:02;73.93;;;31.92;;
13255;SDS011;37913;48.370;10.930;2023-03-14T04:56:29;68.70;;;30.60;;
13255;SDS011;37913;48.370;10.930;2023-03-14T04:58:56;75.22;;;36.47;;
13255;SDS011;37913;48.370;10.930;2023-03-14T05:01:22;81.07;;;33.37;;
13255;SDS011;37913;48.370;10.930;2023-03-14T05:03:51;80.45;;;32.85;;
13255;SDS011;37913;48.370;10.930;2023-03-14T05:06:18;77.10;;;32.22;;
13255;SDS011;37913;48.370;10.930;2023-03-14T05:08:45;87.20;;;34.30;;
13255;SDS011;37913;48.370;10.930;2023-03-14T05:11:12;79.33;;;33.03;;
13255;SDS011;37913;48.370;10.930;2023-03-14T05:13:39;79.28;;;32.78;;
13255;SDS011;37913;48.370;10.930;2023-03-14T05:16:07;75.33;;;32.13;;
13255;SDS011;37913;48.370;10.930;2023-03-14T05:18:36;71.73;;;31.37;;
13255;SDS011;37913;48.370;10.930;2023-03-14T05:21:04;83.80;;;33.53;;
13255;SDS011;37913;48.370;10.930;2023-03-14T05:23:32;62.95;;;29.30;;
13255;SDS011;37913;48.370;10.930;2023-03-14T05:25:59;85.57;;;33.73;;
13255;SDS011;37913;48.370;10.930;2023-03-14T05:28:25;83.50;;;33.90;;
13255;SDS011;37913;48.370;10.930;2023-03-14T05:30:53;70.53;;;31.23;;
13255;SDS011;37913;48.370;10.930;2023-03-14T05:33:20;80.72;;;33.15;;
13255;SDS011;37913;48.370;10.930;2023-03-14T05:35:47;79.35;;;32.90;;
13255;SDS011;37913;48.370;10.930;2023-03-14T05:38:15;76.93;;;32.27;;
13255;SDS011;37913;48.370;10.930;2023-03-14T05:40:42;79.95;;;33.13;;
13255;SDS011;37913;48.370;10.930;2023-03-14T05:43:10;75.70;;;32.03;;
13255;SDS011;37913;48.370;10.930;2023-03-14T05:45:37;77.07;;;32.37;;
13255;SDS011;37913;48.370;10.930;2023-03-14T05:48:04;89.22;;;34.70;;
13255;SDS011;37913;48.370;10.930;2023-03-14T05:50:31;77.53;;;32.38;;
13255;SDS011;37913;48.370;10.930;2023-03-14T05:52:58;78.32;;;32.33;;
13255;SDS011;37913;48.370;10.930;2023-03-14T05:55:26;80.13;;;32.92;;
13255;SDS011;37913;48.370;10.930;2023-03-14T05:57:53;91.85;;;35.40;;
13255;SDS011;37913;48.370;10.930;2023-03-14T06:00:21;80.22;;;32.83;;
13255;SDS011;37913;48.370;10.930;2023-03-14T06:02:48;79.60;;;33.15;;
13255;SDS011;37913;48.370;10.930;2023-03-14T06:05:15;73.28;;;31.70;;
13255;SDS011;37913;48.370;10.930;2023-03-14T06:07:42;76.18;;;32.45;;
13255;SDS011;37913;48.370;10.930;2023-03-14T06:10:10;69.43;;;30.95;;
13255;SDS011;37913;48.370;10.930;2023-03-14T06:12:38;70.55;;;31.13;;
13255;SDS011;37913;48.370;10.930;2023-03-14T06:15:05;75.65;;;31.80;;
13255;SDS011;37913;48.370;10.930;2023-03-14T06:17:33;76.30;;;32.22;;
13255;SDS011;37913;48.370;10.930;2023-03-14T06:20:00;77.00;;;32.10;;
13255;SDS011;37913;48.370;10.930;2023-03-14T06:22:27;83.55;;;33.75;;
13255;SDS011;37913;48.370;10.930;2023-03-14T06:24:54;91.07;;;34.88;;
13255;SDS011;37913;48.370;10.930;2023-03-14T06:27:21;83.65;;;34.05;;
13255;SDS011;37913;48.370;10.930;2023-03-14T06:29:49;102.63;;;37.97;;
13255;SDS011;37913;48.370;10.930;2023-03-14T06:32:16;82.22;;;33.65;;
13255;SDS011;37913;48.370;10.930;2023-03-14T06:34:43;98.60;;;36.88;;
13255;SDS011;37913;48.370;10.930;2023-03-14T06:37:10;69.85;;;30.88;;
13255;SDS011;37913;48.370;10.930;2023-03-14T06:39:37;76.03;;;32.40;;
13255;SDS011;37913;48.370;10.930;2023-03-14T06:42:04;100.47;;;37.55;;
13255;SDS011;37913;48.370;10.930;2023-03-14T06:44:31;82.68;;;33.65;;
13255;SDS011;37913;48.370;10.930;2023-03-14T06:46:59;77.07;;;32.67;;
13255;SDS011;37913;48.370;10.930;2023-03-14T06:49:26;91.32;;;36.00;;
13255;SDS011;37913;48.370;10.930;2023-03-14T06:51:53;77.40;;;32.58;;
13255;SDS011;37913;48.370;10.930;2023-03-14T06:54:20;76.13;;;32.45;;
13255;SDS011;37913;48.370;10.930;2023-03-14T06:56:47;123.85;;;42.30;;
13255;SDS011;37913;48.370;10.930;2023-03-14T06:59:14;104.95;;;38.15;;
13255;SDS011;37913;48.370;10.930;2023-03-14T07:01:41;76.60;;;32.50;;
13255;SDS011;37913;48.370;10.930;2023-03-14T07:04:09;89.45;;;35.53;;
13255;SDS011;37913;48.370;10.930;2023-03-14T07:06:36;89.45;;;35.17;;
13255;SDS011;37913;48.370;10.930;2023-03-14T07:09:04;78.70;;;33.05;;
13255;SDS011;37913;48.370;10.930;2023-03-14T07:11:31;77.68;;;32.88;;
13255;SDS011;37913;48.370;10.930;2023-03-14T07:13:59;70.70;;;31.30;;
13255;SDS011;37913;48.370;10.930;2023-03-14T07:16:26;78.75;;;33.05;;
13255;SDS011;37913;48.370;10.930;2023-03-14T07:18:56;86.47;;;34.95;;
13255;SDS011;37913;48.370;10.930;2023-03-14T07:21:24;79.30;;;32.72;;
13255;SDS011;37913;48.370;10.930;2023-03-14T07:23:51;79.43;;;32.83;;
13255;SDS011;37913;48.370;10.930;2023-03-14T07:26:18;78.30;;;32.28;;
13255;SDS011;37913;48.370;10.930;2023-03-14T07:28:45;79.50;;;33.30;;
13255;SDS011;37913;48.370;10.930;2023-03-14T07:31:12;77.25;;;32.92;;
13255;SDS011;37913;48.370;10.930;2023-03-14T07:33:39;75.28;;;32.15;;
13255;SDS011;37913;48.370;10.930;2023-03-14T07:36:06;75.80;;;32.15;;
13255;SDS011;37913;48.370;10.930;2023-03-14T07:38:35;85.07;;;34.75;;
13255;SDS011;37913;48.370;10.930;2023-03-14T07:41:04;81.10;;;34.67;;
13255;SDS011;37913;48.370;10.930;2023-03-14T07:43:32;79.70;;;33.38;;
13255;SDS011;37913;48.370;10.930;2023-03-14T07:45:59;75.53;;;32.72;;
13255;SDS011;37913;48.370;10.930;2023-03-14T07:48:26;75.38;;;32.40;;
13255;SDS011;37913;48.370;10.930;2023-03-14T07:50:53;73.07;;;32.13;;
13255;SDS011;37913;48.370;10.930;2023-03-14T07:53:21;83.53;;;33.70;;
13255;SDS011;37913;48.370;10.930;2023-03-14T07:55:51;86.70;;;35.78;;
13255;SDS011;37913;48.370;10.930;2023-03-14T07:58:19;80.22;;;37.80;;
13255;SDS011;37913;48.370;10.930;2023-03-14T08:00:47;74.40;;;35.88;;
13255;SDS011;37913;48.370;10.930;2023-03-14T08:03:14;80.90;;;37.53;;
13255;SDS011;37913;48.370;10.930;2023-03-14T08:05:41;77.28;;;37.55;;
13255;SDS011;37913;48.370;10.930;2023-03-14T08:08:08;75.00;;;35.17;;
13255;SDS011;37913;48.370;10.930;2023-03-14T08:10:36;75.00;;;36.40;;
13255;SDS011;37913;48.370;10.930;2023-03-14T08:13:04;78.72;;;37.85;;
13255;SDS011;37913;48.370;10.930;2023-03-14T08:15:31;76.47;;;36.40;;
13255;SDS011;37913;48.370;10.930;2023-03-14T08:17:58;73.10;;;35.35;;
13255;SDS011;37913;48.370;10.930;2023-03-14T08:20:26;78.55;;;37.50;;
13255;SDS011;37913;48.370;10.930;2023-03-14T08:22:55;78.47;;;37.38;;
13255;SDS011;37913;48.370;10.930;2023-03-14T08:25:23;73.65;;;36.03;;
13255;SDS011;37913;48.370;10.930;2023-03-14T08:27:50;78.78;;;37.08;;
13255;SDS011;37913;48.370;10.930;2023-03-14T08:30:20;78.50;;;36.55;;
13255;SDS011;37913;48.370;10.930;2023-03-14T08:32:48;87.75;;;38.40;;
13255;SDS011;37913;48.370;10.930;2023-03-14T08:35:15;80.10;;;36.40;;
13255;SDS011;37913;48.370;10.930;2023-03-14T08:37:42;84.97;;;37.22;;
13255;SDS011;37913;48.370;10.930;2023-03-14T08:40:10;78.53;;;37.97;;
13255;SDS011;37913;48.370;10.930;2023-03-14T08:42:37;84.75;;;39.55;;
13255;SDS011;37913;48.370;10.930;2023-03-14T08:45:08;83.57;;;41.47;;
13255;SDS011;37913;48.370;10.930;2023-03-14T08:47:42;85.28;;;47.42;;
13255;SDS011;37913;48.370;10.930;2023-03-14T08:50:12;99.07;;;49.22;;
13255;SDS011;37913;48.370;10.930;2023-03-14T08:52:51;79.75;;;34.03;;
13255;SDS011;37913;48.370;10.930;2023-03-14T08:55:18;78.50;;;33.67;;
13255;SDS011;37913;48.370;10.930;2023-03-14T08:57:45;68.78;;;32.40;;
13255;SDS011;37913;48.370;10.930;2023-03-14T09:00:13;84.72;;;35.83;;
13255;SDS011;37913;48.370;10.930;2023-03-14T09:02:41;87.18;;;36.45;;
13255;SDS011;37913;48.370;10.930;2023-03-14T09:05:09;82.95;;;35.65;;
13255;SDS011;37913;48.370;10.930;2023-03-14T09:07:37;72.18;;;33.25;;
13255;SDS011;37913;48.370;10.930;2023-03-14T09:10:04;79.25;;;35.13;;
13255;SDS011;37913;48.370;10.930;2023-03-14T09:12:32;107.97;;;41.30;;
13255;SDS011;37913;48.370;10.930;2023-03-14T09:14:59;87.80;;;37.55;;
13255;SDS011;37913;48.370;10.930;2023-03-14T09:17:26;80.95;;;36.40;;
13255;SDS011;37913;48.370;10.930;2023-03-14T09:19:54;85.80;;;38.45;;
13255;SDS011;37913;48.370;10.930;2023-03-14T09:22:21;84.85;;;37.08;;
13255;SDS011;37913;48.370;10.930;2023-03-14T09:24:49;97.22;;;39.97;;
13255;SDS011;37913;48.370;10.930;2023-03-14T09:27:15;80.63;;;36.40;;
13255;SDS011;37913;48.370;10.930;2023-03-14T09:29:42;71.75;;;35.30;;
13255;SDS011;37913;48.370;10.930;2023-03-14T09:32:09;89.72;;;39.22;;
13255;SDS011;37913;48.370;10.930;2023-03-14T09:34:36;81.43;;;37.72;;
13255;SDS011;37913;48.370;10.930;2023-03-14T09:37:04;86.07;;;39.25;;
13255;SDS011;37913;48.370;10.930;2023-03-14T09:39:31;86.40;;;40.13;;
13255;SDS011;37913;48.370;10.930;2023-03-14T09:41:58;117.57;;;47.60;;
13255;SDS011;37913;48.370;10.930;2023-03-14T09:44:31;88.18;;;40.47;;
13255;SDS011;37913;48.370;10.930;2023-03-14T09:47:03;95.72;;;41.70;;
13255;SDS011;37913;48.370;10.930;2023-03-14T09:49:33;90.15;;;40.55;;
13255;SDS011;37913;48.370;10.930;2023-03-14T09:52:03;83.53;;;39.03;;
13255;SDS011;37913;48.370;10.930;2023-03-14T09:54:40;95.05;;;40.75;;
13255;SDS011;37913;48.370;10.930;2023-03-14T09:57:11;84.20;;;38.85;;
13255;SDS011;37913;48.370;10.930;2023-03-14T09:59:41;81.18;;;38.58;;
13255;SDS011;37913;48.370;10.930;2023-03-14T10:02:12;88.13;;;39.22;;
13255;SDS011;37913;48.370;10.930;2023-03-14T10:04:42;85.20;;;39.25;;
13255;SDS011;37913;48.370;10.930;2023-03-14T10:07:13;84.38;;;39.20;;
13255;SDS011;37913;48.370;10.930;2023-03-14T10:09:44;87.80;;;40.22;;
13255;SDS011;37913;48.370;10.930;2023-03-14T10:12:13;89.28;;;40.85;;
13255;SDS011;37913;48.370;10.930;2023-03-14T10:14:44;85.07;;;39.67;;
13255;SDS011;37913;48.370;10.930;2023-03-14T10:17:13;86.10;;;39.30;;
13255;SDS011;37913;48.370;10.930;2023-03-14T10:19:50;89.05;;;39.75;;
13255;SDS011;37913;48.370;10.930;2023-03-14T10:22:20;87.63;;;38.72;;
13255;SDS011;37913;48.370;10.930;2023-03-14T10:24:50;95.28;;;39.55;;
13255;SDS011;37913;48.370;10.930;2023-03-14T10:27:21;84.88;;;37.83;;
13255;SDS011;37913;48.370;10.930;2023-03-14T10:29:52;90.60;;;38.92;;
13255;SDS011;37913;48.370;10.930;2023-03-14T10:32:21;81.75;;;36.40;;
13255;SDS011;37913;48.370;10.930;2023-03-14T10:35:05;93.72;;;38.45;;
13255;SDS011;37913;48.370;10.930;2023-03-14T10:37:36;90.35;;;38.53;;
13255;SDS011;37913;48.370;10.930;2023-03-14T10:40:16;91.07;;;39.47;;
13255;SDS011;37913;48.370;10.930;2023-03-14T10:42:45;87.88;;;38.50;;
13255;SDS011;37913;48.370;10.930;2023-03-14T10:45:22;122.70;;;46.13;;
13255;SDS011;37913;48.370;10.930;2023-03-14T10:47:57;83.28;;;38.50;;
13255;SDS011;37913;48.370;10.930;2023-03-14T10:50:27;87.20;;;39.53;;
13255;SDS011;37913;48.370;10.930;2023-03-14T10:52:57;103.10;;;42.63;;
13255;SDS011;37913;48.370;10.930;2023-03-14T10:55:38;85.70;;;38.35;;
13255;SDS011;37913;48.370;10.930;2023-03-14T10:58:17;84.25;;;38.03;;
13255;SDS011;37913;48.370;10.930;2023-03-14T11:00:46;101.88;;;40.20;;
13255;SDS011;37913;48.370;10.930;2023-03-14T11:03:18;83.90;;;37.15;;
13255;SDS011;37913;48.370;10.930;2023-03-14T11:05:48;90.65;;;38.10;;
13255;SDS011;37913;48.370;10.930;2023-03-14T11:08:23;82.10;;;36.10;;
13255;SDS011;37913;48.370;10.930;2023-03-14T11:10:54;93.75;;;38.22;;
13255;SDS011;37913;48.370;10.930;2023-03-14T11:13:29;79.68;;;35.55;;
13255;SDS011;37913;48.370;10.930;2023-03-14T11:16:04;87.47;;;38.20;;
13255;SDS011;37913;48.370;10.930;2023-03-14T11:18:48;82.10;;;36.47;;
13255;SDS011;37913;48.370;10.930;2023-03-14T11:21:27;85.47;;;36.85;;
13255;SDS011;37913;48.370;10.930;2023-03-14T11:24:02;86.15;;;37.25;;
13255;SDS011;37913;48.370;10.930;2023-03-14T11:26:46;74.88;;;35.33;;
13255;SDS011;37913;48.370;10.930;2023-03-14T11:29:20;92.30;;;38.90;;
13255;SDS011;37913;48.370;10.930;2023-03-14T11:31:49;78.88;;;36.60;;
13255;SDS011;37913;48.370;10.930;2023-03-14T11:34:20;95.20;;;39.65;;
13255;SDS011;37913;48.370;10.930;2023-03-14T11:36:55;82.82;;;36.92;;
13255;SDS011;37913;48.370;10.930;2023-03-14T11:39:29;82.93;;;37.08;;
13255;SDS011;37913;48.370;10.930;2023-03-14T11:42:04;82.00;;;37.60;;
13255;SDS011;37913;48.370;10.930;2023-03-14T11:44:38;83.53;;;37.30;;
13255;SDS011;37913;48.370;10.930;2023-03-14T11:47:06;82.47;;;36.35;;
13255;SDS011;37913;48.370;10.930;2023-03-14T11:49:38;75.22;;;34.72;;
13255;SDS011;37913;48.370;10.930;2023-03-14T11:52:12;91.95;;;37.28;;
13255;SDS011;37913;48.370;10.930;2023-03-14T11:54:46;89.90;;;37.25;;
13255;SDS011;37913;48.370;10.930;2023-03-14T11:57:18;84.35;;;36.38;;
13255;SDS011;37913;48.370;10.930;2023-03-14T11:59:48;78.10;;;34.97;;
13255;SDS011;37913;48.370;10.930;2023-03-14T12:02:21;85.43;;;37.65;;
13255;SDS011;37913;48.370;10.930;2023-03-14T12:04:59;102.25;;;39.90;;
13255;SDS011;37913;48.370;10.930;2023-03-14T12:11:04;78.68;;;34.90;;
13255;SDS011;37913;48.370;10.930;2023-03-14T12:13:45;86.70;;;36.65;;
13255;SDS011;37913;48.370;10.930;2023-03-14T12:16:20;87.10;;;36.20;;
13255;SDS011;37913;48.370;10.930;2023-03-14T12:19:13;74.50;;;33.72;;
13255;SDS011;37913;48.370;10.930;2023-03-14T12:21:47;79.50;;;36.53;;
13255;SDS011;37913;48.370;10.930;2023-03-14T12:24:17;82.63;;;35.95;;
13255;SDS011;37913;48.370;10.930;2023-03-14T12:26:52;71.40;;;33.42;;
13255;SDS011;37913;48.370;10.930;2023-03-14T12:29:20;75.00;;;33.92;;
13255;SDS011;37913;48.370;10.930;2023-03-14T12:31:48;79.75;;;34.88;;
13255;SDS011;37913;48.370;10.930;2023-03-14T12:34:26;98.50;;;38.65;;
13255;SDS011;37913;48.370;10.930;2023-03-14T12:36:56;83.63;;;35.83;;
13255;SDS011;37913;48.370;10.930;2023-03-14T12:39:35;71.07;;;33.22;;
13255;SDS011;37913;48.370;10.930;2023-03-14T12:42:12;89.50;;;36.90;;
13255;SDS011;37913;48.370;10.930;2023-03-14T12:44:44;77.43;;;34.13;;
13255;SDS011;37913;48.370;10.930;2023-03-14T12:50:18;81.25;;;34.50;;
13255;SDS011;37913;48.370;10.930;2023-03-14T12:52:59;78.15;;;33.58;;
13255;SDS011;37913;48.370;10.930;2023-03-14T12:55:50;85.63;;;35.45;;
13255;SDS011;37913;48.370;10.930;2023-03-14T12:58:25;79.38;;;33.90;;
13255;SDS011;37913;48.370;10.930;2023-03-14T13:00:59;79.03;;;33.95;;
13255;SDS011;37913;48.370;10.930;2023-03-14T13:03:35;77.15;;;33.78;;
13255;SDS011;37913;48.370;10.930;2023-03-14T13:06:05;69.93;;;32.55;;
13255;SDS011;37913;48.370;10.930;2023-03-14T13:08:36;87.18;;;35.70;;
13255;SDS011;37913;48.370;10.930;2023-03-14T13:11:05;89.05;;;36.33;;
13255;SDS011;37913;48.370;10.930;2023-03-14T13:13:40;84.07;;;35.17;;
13255;SDS011;37913;48.370;10.930;2023-03-14T13:16:12;78.10;;;34.03;;
13255;SDS011;37913;48.370;10.930;2023-03-14T13:18:43;75.63;;;33.60;;
13255;SDS011;37913;48.370;10.930;2023-03-14T13:21:12;79.95;;;34.53;;
13255;SDS011;37913;48.370;10.930;2023-03-14T13:23:53;81.30;;;34.42;;
13255;SDS011;37913;48.370;10.930;2023-03-14T13:26:22;66.97;;;31.73;;
13255;SDS011;37913;48.370;10.930;2023-03-14T13:28:53;76.25;;;32.92;;
13255;SDS011;37913;48.370;10.930;2023-03-14T13:31:21;72.45;;;32.30;;
13255;SDS011;37913;48.370;10.930;2023-03-14T13:33:57;80.53;;;33.55;;
13255;SDS011;37913;48.370;10.930;2023-03-14T13:36:24;81.30;;;33.85;;
13255;SDS011;37913;48.370;10.930;2023-03-14T13:38:55;78.20;;;32.95;;
13255;SDS011;37913;48.370;10.930;2023-03-14T13:41:23;76.57;;;33.10;;
13255;SDS011;37913;48.370;10.930;2023-03-14T13:43:51;78.15;;;32.95;;
13255;SDS011;37913;48.370;10.930;2023-03-14T13:46:21;79.07;;;33.08;;
13255;SDS011;37913;48.370;10.930;2023-03-14T13:48:50;74.38;;;32.63;;
13255;SDS011;37913;48.370;10.930;2023-03-14T13:51:20;74.40;;;32.03;;
13255;SDS011;37913;48.370;10.930;2023-03-14T13:53:50;63.55;;;30.70;;
13255;SDS011;37913;48.370;10.930;2023-03-14T13:56:18;74.03;;;31.92;;
13255;SDS011;37913;48.370;10.930;2023-03-14T13:58:47;77.75;;;32.95;;
13255;SDS011;37913;48.370;10.930;2023-03-14T14:01:15;70.85;;;31.58;;
13255;SDS011;37913;48.370;10.930;2023-03-14T14:03:46;76.38;;;33.38;;
13255;SDS011;37913;48.370;10.930;2023-03-14T14:08:58;68.07;;;31.70;;
13255;SDS011;37913;48.370;10.930;2023-03-14T14:11:31;71.32;;;31.45;;
13255;SDS011;37913;48.370;10.930;2023-03-14T14:14:04;69.78;;;30.98;;
13255;SDS011;37913;48.370;10.930;2023-03-14T14:16:35;72.43;;;31.60;;
13255;SDS011;37913;48.370;10.930;2023-03-14T14:19:04;63.42;;;31.02;;
13255;SDS011;37913;48.370;10.930;2023-03-14T14:21:31;78.18;;;33.15;;
13255;SDS011;37913;48.370;10.930;2023-03-14T14:23:58;83.60;;;33.90;;
13255;SDS011;37913;48.370;10.930;2023-03-14T14:26:26;75.75;;;32.20;;
13255;SDS011;37913;48.370;10.930;2023-03-14T14:29:00;88.60;;;35.88;;
13255;SDS011;37913;48.370;10.930;2023-03-14T14:31:29;66.43;;;30.65;;